createdAt,value
2019-06-26T00:00:15.992Z,12.25
2019-06-26T00:02:45.749Z,10.03
2019-06-26T00:05:15.524Z,10.28
2019-06-26T00:07:45.121Z,11.43
2019-06-26T00:10:14.938Z,13.30
2019-06-26T00:12:44.985Z,13.30
2019-06-26T00:15:15.769Z,12.60
2019-06-26T00:17:45.345Z,11.28
2019-06-26T00:20:16.554Z,10.13
2019-06-26T00:22:46.134Z,9.95
2019-06-26T00:25:15.738Z,10.90
2019-06-26T00:27:45.309Z,9.93
2019-06-26T00:30:15.158Z,9.98
2019-06-26T00:32:44.765Z,11.48
2019-06-26T00:35:15.445Z,15.30
2019-06-26T00:37:45.048Z,15.43
2019-06-26T00:40:15.187Z,13.60
2019-06-26T00:42:45.024Z,13.72
2019-06-26T00:45:14.996Z,10.48
2019-06-26T00:47:44.657Z,15.53
2019-06-26T00:50:15.480Z,12.80
2019-06-26T00:52:45.125Z,12.05
2019-06-26T00:55:14.804Z,12.20
2019-06-26T00:57:44.500Z,11.60
2019-06-26T01:00:14.709Z,11.88
2019-06-26T01:02:44.365Z,13.80
2019-06-26T01:05:14.444Z,13.53
2019-06-26T01:07:44.034Z,13.38
2019-06-26T01:10:14.241Z,13.20
2019-06-26T01:12:43.902Z,16.93
2019-06-26T01:15:13.977Z,13.65
2019-06-26T01:17:43.637Z,14.45
2019-06-26T01:20:13.635Z,13.15
2019-06-26T01:22:43.264Z,15.83
2019-06-26T01:25:13.176Z,13.10
2019-06-26T01:27:42.833Z,17.00
2019-06-26T01:30:13.312Z,14.90
2019-06-26T01:32:42.967Z,13.68
2019-06-26T01:35:12.677Z,14.83
2019-06-26T01:37:42.334Z,19.20
2019-06-26T01:40:11.940Z,16.07
2019-06-26T01:42:41.530Z,15.55
2019-06-26T01:45:11.436Z,16.02
2019-06-26T01:47:41.023Z,15.83
2019-06-26T01:50:10.901Z,15.25
2019-06-26T01:52:40.488Z,12.40
2019-06-26T01:55:10.802Z,13.03
2019-06-26T01:57:40.466Z,16.67
2019-06-26T02:00:12.278Z,13.32
2019-06-26T02:02:42.014Z,19.82
2019-06-26T02:05:11.756Z,15.32
2019-06-26T02:07:41.424Z,13.98
2019-06-26T02:10:11.732Z,18.12
2019-06-26T02:12:41.393Z,22.95
2019-06-26T02:15:12.273Z,22.22
2019-06-26T02:17:41.925Z,18.42
2019-06-26T02:20:11.785Z,21.23
2019-06-26T02:22:41.441Z,26.75
2019-06-26T02:25:11.224Z,20.92
2019-06-26T02:27:40.834Z,24.00
2019-06-26T02:30:11.041Z,23.27
2019-06-26T02:32:40.698Z,22.10
2019-06-26T02:35:10.854Z,20.88
2019-06-26T02:37:40.575Z,22.20
2019-06-26T02:40:12.453Z,24.87
2019-06-26T02:42:42.043Z,21.52
2019-06-26T02:45:11.918Z,21.33
2019-06-26T02:47:41.505Z,22.40
2019-06-26T02:50:11.290Z,24.10
2019-06-26T02:52:40.933Z,24.07
2019-06-26T02:55:10.550Z,21.62
2019-06-26T02:57:40.133Z,22.82
2019-06-26T03:00:09.950Z,22.75
2019-06-26T03:02:39.805Z,25.30
2019-06-26T03:05:09.928Z,22.98
2019-06-26T03:07:39.517Z,23.85
2019-06-26T03:10:09.225Z,21.97
2019-06-26T03:12:39.882Z,24.52
2019-06-26T03:15:10.332Z,20.32
2019-06-26T03:17:54.158Z,27.22
2019-06-26T03:20:12.926Z,24.50
2019-06-26T03:22:42.507Z,20.88
2019-06-26T03:25:12.147Z,24.63
2019-06-26T03:27:41.657Z,21.27
2019-06-26T03:30:11.490Z,23.83
2019-06-26T03:32:41.134Z,22.13
2019-06-26T03:35:11.219Z,22.67
2019-06-26T03:37:40.805Z,21.10
2019-06-26T03:40:11.816Z,23.40
2019-06-26T03:42:41.409Z,22.65
2019-06-26T03:45:24.627Z,24.40
2019-06-26T03:47:42.325Z,23.40
2019-06-26T03:50:12.435Z,23.67
2019-06-26T03:52:42.073Z,22.48
2019-06-26T03:55:11.952Z,24.02
2019-06-26T03:57:41.629Z,22.95
2019-06-26T04:00:12.455Z,24.18
2019-06-26T04:02:42.012Z,23.95
2019-06-26T04:05:11.618Z,23.42
2019-06-26T04:07:41.275Z,22.95
2019-06-26T04:10:11.576Z,25.32
2019-06-26T04:12:41.164Z,30.90
2019-06-26T04:15:11.372Z,24.50
2019-06-26T04:17:40.996Z,24.07
2019-06-26T04:20:10.669Z,23.22
2019-06-26T04:22:40.247Z,28.60
2019-06-26T04:25:10.036Z,27.30
2019-06-26T04:27:39.624Z,26.37
2019-06-26T04:30:10.649Z,27.35
2019-06-26T04:32:40.193Z,28.87
2019-06-26T04:35:09.843Z,28.45
2019-06-26T04:37:39.461Z,32.45
2019-06-26T04:40:09.513Z,30.70
2019-06-26T04:42:39.189Z,30.02
2019-06-26T04:45:09.676Z,27.50
2019-06-26T04:47:39.280Z,32.30
2019-06-26T04:50:09.441Z,29.80
2019-06-26T04:52:39.113Z,38.98
2019-06-26T04:55:09.395Z,35.28
2019-06-26T04:57:38.998Z,29.75
2019-06-26T05:00:09.586Z,29.98
2019-06-26T05:02:39.193Z,30.62
2019-06-26T05:05:09.298Z,31.27
2019-06-26T05:07:38.968Z,30.95
2019-06-26T05:10:09.863Z,31.27
2019-06-26T05:12:39.468Z,36.30
2019-06-26T05:15:09.623Z,33.55
2019-06-26T05:17:39.227Z,35.13
2019-06-26T05:20:10.489Z,35.58
2019-06-26T05:22:40.100Z,32.50
2019-06-26T05:25:12.096Z,36.25
2019-06-26T05:27:41.820Z,31.02
2019-06-26T05:30:12.306Z,32.80
2019-06-26T05:32:41.915Z,33.23
2019-06-26T05:35:12.568Z,33.78
2019-06-26T05:37:42.185Z,33.70
2019-06-26T05:40:12.574Z,35.78
2019-06-26T05:42:42.268Z,34.27
2019-06-26T05:45:13.568Z,36.28
2019-06-26T05:47:44.161Z,37.88
2019-06-26T05:50:14.531Z,38.63
2019-06-26T05:52:44.136Z,38.90
2019-06-26T05:55:15.216Z,38.20
2019-06-26T05:57:48.300Z,35.30
2019-06-26T06:00:16.714Z,39.30
2019-06-26T06:02:46.524Z,40.12
2019-06-26T06:05:16.301Z,40.83
2019-06-26T06:07:45.908Z,36.73
2019-06-26T06:10:15.900Z,42.48
2019-06-26T06:12:45.807Z,37.40
2019-06-26T06:15:15.685Z,39.90
2019-06-26T06:17:45.290Z,43.63
2019-06-26T06:20:16.443Z,44.85
2019-06-26T06:22:46.074Z,38.00
2019-06-26T06:25:15.641Z,41.23
2019-06-26T06:27:45.176Z,42.30
2019-06-26T06:30:14.765Z,44.10
2019-06-26T06:32:44.443Z,40.83
2019-06-26T06:35:14.352Z,46.95
2019-06-26T06:37:44.029Z,46.37
2019-06-26T06:40:13.907Z,49.98
2019-06-26T06:42:43.860Z,44.98
2019-06-26T06:45:13.648Z,50.52
2019-06-26T06:47:43.183Z,47.25
2019-06-26T06:50:13.304Z,48.02
2019-06-26T06:52:42.908Z,50.98
2019-06-26T06:55:13.124Z,47.15
2019-06-26T06:57:42.657Z,53.17
2019-06-26T07:00:12.747Z,49.10
2019-06-26T07:02:42.345Z,41.58
2019-06-26T07:05:12.029Z,47.00
2019-06-26T07:07:41.709Z,47.58
2019-06-26T07:10:11.498Z,44.70
2019-06-26T07:12:41.077Z,45.65
2019-06-26T07:15:12.655Z,45.12
2019-06-26T07:17:42.240Z,45.60
2019-06-26T07:20:12.348Z,49.23
2019-06-26T07:22:41.931Z,52.48
2019-06-26T07:25:11.916Z,48.78
2019-06-26T07:27:41.569Z,44.33
2019-06-26T07:30:11.344Z,43.95
2019-06-26T07:32:40.927Z,44.23
2019-06-26T07:35:10.737Z,41.83
2019-06-26T07:37:40.694Z,48.08
2019-06-26T07:40:10.788Z,40.70
2019-06-26T07:45:10.312Z,43.50
2019-06-26T07:47:43.631Z,44.15
2019-06-26T07:50:12.941Z,42.43
2019-06-26T07:52:42.843Z,36.53
2019-06-26T07:55:13.149Z,37.48
2019-06-26T07:57:42.737Z,33.35
2019-06-26T08:00:12.445Z,34.63
2019-06-26T08:02:42.097Z,37.23
2019-06-26T08:05:12.200Z,31.23
2019-06-26T08:07:41.784Z,37.38
2019-06-26T08:10:11.868Z,40.00
2019-06-26T08:12:41.517Z,38.28
2019-06-26T08:15:11.621Z,33.15
2019-06-26T08:17:41.284Z,33.92
2019-06-26T08:20:10.980Z,34.75
2019-06-26T08:22:40.564Z,33.08
2019-06-26T08:25:10.972Z,29.95
2019-06-26T08:27:40.558Z,33.83
2019-06-26T08:30:10.876Z,31.57
2019-06-26T08:32:40.480Z,26.00
2019-06-26T08:35:10.369Z,30.68
2019-06-26T08:37:39.959Z,27.95
2019-06-26T08:40:10.143Z,28.17
2019-06-26T08:42:39.672Z,30.45
2019-06-26T08:45:09.683Z,27.70
2019-06-26T08:47:39.634Z,28.17
2019-06-26T08:50:09.861Z,30.57
2019-06-26T08:52:39.420Z,29.40
2019-06-26T08:55:09.436Z,26.52
2019-06-26T08:57:39.200Z,24.35
2019-06-26T09:00:10.517Z,27.73
2019-06-26T09:02:40.460Z,25.05
2019-06-26T09:05:10.064Z,24.32
2019-06-26T09:07:39.648Z,22.48
2019-06-26T09:10:09.652Z,24.98
2019-06-26T09:12:40.299Z,23.35
2019-06-26T09:15:10.718Z,22.90
2019-06-26T09:17:40.225Z,31.97
2019-06-26T09:20:09.928Z,31.80
2019-06-26T09:22:39.696Z,26.75
2019-06-26T09:25:21.547Z,24.77
2019-06-26T09:27:40.506Z,29.23
2019-06-26T09:30:10.520Z,28.15
2019-06-26T09:32:40.097Z,26.10
2019-06-26T09:35:09.806Z,26.65
2019-06-26T09:37:39.455Z,18.15
2019-06-26T09:40:09.547Z,26.77
2019-06-26T09:42:39.041Z,25.77
2019-06-26T09:45:08.751Z,27.73
2019-06-26T09:47:38.336Z,29.05
2019-06-26T09:50:08.644Z,20.60
2019-06-26T09:52:38.227Z,25.60
2019-06-26T09:55:07.837Z,23.50
2019-06-26T09:57:39.044Z,27.15
2019-06-26T10:00:10.724Z,25.88
2019-06-26T10:02:40.680Z,28.15
2019-06-26T10:05:10.684Z,25.70
2019-06-26T10:07:41.438Z,24.25
2019-06-26T10:10:11.050Z,26.60
2019-06-26T10:12:40.697Z,29.25
2019-06-26T10:15:10.308Z,27.17
2019-06-26T10:17:39.897Z,28.07
2019-06-26T10:20:10.304Z,22.32
2019-06-26T10:22:39.966Z,23.20
2019-06-26T10:25:11.537Z,26.23
2019-06-26T10:27:41.745Z,28.25
2019-06-26T10:30:12.252Z,22.87
2019-06-26T10:32:41.836Z,23.45
2019-06-26T10:35:11.552Z,23.70
2019-06-26T10:37:41.131Z,19.98
2019-06-26T10:40:11.268Z,18.52
2019-06-26T10:42:40.841Z,19.90
2019-06-26T10:45:11.056Z,22.50
2019-06-26T10:47:40.665Z,21.17
2019-06-26T10:50:10.740Z,25.48
2019-06-26T10:52:40.323Z,17.05
2019-06-26T10:55:12.011Z,22.15
2019-06-26T10:57:41.571Z,20.95
2019-06-26T11:00:11.976Z,22.10
2019-06-26T11:02:41.555Z,22.50
2019-06-26T11:05:12.769Z,18.12
2019-06-26T11:07:42.441Z,16.73
2019-06-26T11:10:13.815Z,17.60
2019-06-26T11:12:43.468Z,17.85
2019-06-26T11:15:13.577Z,17.73
2019-06-26T11:17:43.346Z,14.33
2019-06-26T11:20:14.233Z,14.45
2019-06-26T11:22:43.811Z,15.30
2019-06-26T11:25:14.997Z,20.05
2019-06-26T11:27:44.595Z,18.73
2019-06-26T11:30:14.868Z,14.45
2019-06-26T11:32:44.445Z,12.53
2019-06-26T11:35:14.359Z,13.05
2019-06-26T11:37:43.990Z,12.47
2019-06-26T11:40:13.896Z,14.45
2019-06-26T11:42:43.468Z,11.18
2019-06-26T11:45:13.273Z,19.52
2019-06-26T11:47:45.787Z,13.38
2019-06-26T11:50:15.088Z,9.78
2019-06-26T11:52:44.944Z,14.75
2019-06-26T11:55:15.948Z,14.98
2019-06-26T11:57:45.534Z,17.42
2019-06-26T12:00:17.432Z,8.78
2019-06-26T12:02:47.008Z,11.38
2019-06-26T12:05:18.051Z,14.45
2019-06-26T12:07:47.692Z,11.65
2019-06-26T12:10:19.287Z,15.88
2019-06-26T12:12:48.924Z,16.57
2019-06-26T12:15:19.828Z,13.43
2019-06-26T12:17:49.425Z,11.18
2019-06-26T12:20:20.090Z,17.20
2019-06-26T12:22:49.837Z,15.13
2019-06-26T12:25:19.418Z,13.30
2019-06-26T12:27:49.016Z,13.00
2019-06-26T12:30:18.920Z,15.93
2019-06-26T12:33:02.169Z,14.85
2019-06-26T12:35:19.732Z,12.25
2019-06-26T12:37:49.391Z,16.23
2019-06-26T12:40:18.972Z,16.40
2019-06-26T12:42:49.552Z,13.98
2019-06-26T12:45:19.239Z,16.23
2019-06-26T12:47:48.731Z,14.58
2019-06-26T12:50:34.542Z,13.18
2019-06-26T12:52:52.472Z,14.00
2019-06-26T12:55:22.049Z,20.45
2019-06-26T12:57:51.865Z,19.52
2019-06-26T13:00:21.645Z,13.83
2019-06-26T13:02:51.247Z,18.25
2019-06-26T13:05:20.824Z,16.07
2019-06-26T13:07:50.432Z,14.28
2019-06-26T13:10:20.712Z,17.90
2019-06-26T13:12:50.235Z,13.30
2019-06-26T13:15:20.025Z,27.22
2019-06-26T13:17:49.719Z,14.10
2019-06-26T13:20:19.304Z,17.92
2019-06-26T13:22:48.942Z,14.40
2019-06-26T13:25:18.495Z,14.75
2019-06-26T13:27:48.447Z,25.40
2019-06-26T13:30:20.924Z,15.40
2019-06-26T13:32:50.451Z,13.05
2019-06-26T13:35:20.030Z,12.40
2019-06-26T13:37:49.640Z,18.60
2019-06-26T13:40:19.224Z,16.75
2019-06-26T13:42:48.837Z,18.00
2019-06-26T13:45:18.731Z,20.95
2019-06-26T13:47:48.315Z,14.60
2019-06-26T13:50:18.264Z,14.23
2019-06-26T13:52:47.871Z,15.53
2019-06-26T13:55:17.645Z,21.50
2019-06-26T13:57:47.254Z,15.65
2019-06-26T14:00:18.707Z,14.68
2019-06-26T14:02:48.304Z,15.68
2019-06-26T14:05:17.882Z,17.30
2019-06-26T14:07:47.479Z,16.12
2019-06-26T14:10:17.168Z,14.53
2019-06-26T14:12:46.767Z,14.35
2019-06-26T14:15:16.945Z,14.55
2019-06-26T14:17:46.566Z,14.85
2019-06-26T14:20:16.413Z,16.97
2019-06-26T14:22:46.027Z,12.20
2019-06-26T14:25:16.160Z,16.50
2019-06-26T14:27:45.736Z,12.13
2019-06-26T14:30:15.518Z,13.60
2019-06-26T14:32:45.134Z,8.38
2019-06-26T14:35:14.699Z,11.83
2019-06-26T14:37:44.368Z,12.28
2019-06-26T14:40:14.764Z,13.50
2019-06-26T14:42:44.428Z,15.78
2019-06-26T14:45:14.180Z,13.22
2019-06-26T14:47:43.828Z,11.15
2019-06-26T14:50:15.768Z,13.13
2019-06-26T14:52:46.058Z,12.75
2019-06-26T14:55:15.858Z,10.70
2019-06-26T14:57:45.385Z,9.53
2019-06-26T15:00:15.064Z,11.48
2019-06-26T15:02:44.745Z,14.38
2019-06-26T15:05:14.526Z,14.80
2019-06-26T15:07:44.201Z,11.33
2019-06-26T15:10:13.997Z,13.08
2019-06-26T15:12:43.669Z,9.40
2019-06-26T15:15:13.458Z,10.48
2019-06-26T15:17:43.063Z,11.22
2019-06-26T15:20:13.142Z,12.60
2019-06-26T15:22:42.674Z,12.55
2019-06-26T15:25:12.457Z,11.93
2019-06-26T15:27:42.133Z,13.98
2019-06-26T15:30:11.921Z,9.28
2019-06-26T15:32:41.521Z,8.35
2019-06-26T15:35:11.415Z,8.10
2019-06-26T15:37:44.553Z,6.87
2019-06-26T15:40:13.982Z,6.85
2019-06-26T15:42:43.726Z,9.83
2019-06-26T15:45:13.473Z,8.95
2019-06-26T15:47:43.077Z,9.10
2019-06-26T15:50:12.756Z,10.48
2019-06-26T15:52:43.425Z,11.63
2019-06-26T15:55:13.012Z,10.32
2019-06-26T15:57:42.616Z,10.70
2019-06-26T16:00:12.193Z,11.83
2019-06-26T16:02:41.797Z,14.53
2019-06-26T16:05:12.185Z,13.38
2019-06-26T16:07:42.169Z,18.67
2019-06-26T16:10:12.001Z,11.15
2019-06-26T16:12:41.605Z,11.25
2019-06-26T16:15:12.240Z,11.20
2019-06-26T16:17:58.517Z,12.47
2019-06-26T16:20:28.224Z,9.25
2019-06-26T16:22:57.825Z,10.95
2019-06-26T16:25:27.408Z,9.83
2019-06-26T16:28:05.171Z,8.98
2019-06-26T16:30:28.277Z,8.25
2019-06-26T16:32:57.885Z,10.28
2019-06-26T16:35:27.501Z,17.23
2019-06-26T16:37:57.002Z,9.83
2019-06-26T16:40:26.933Z,8.38
2019-06-26T16:42:56.846Z,11.08
2019-06-26T16:45:26.405Z,8.53
2019-06-26T16:47:56.006Z,9.75
2019-06-26T16:50:25.596Z,10.45
2019-06-26T16:52:55.146Z,11.35
2019-06-26T16:55:24.716Z,7.97
2019-06-26T16:57:54.321Z,15.20
2019-06-26T17:00:24.105Z,11.90
2019-06-26T17:02:53.637Z,7.78
2019-06-26T17:05:23.220Z,7.90
2019-06-26T17:07:52.818Z,7.33
2019-06-26T17:10:22.402Z,8.70
2019-06-26T17:12:52.076Z,7.47
2019-06-26T17:15:21.597Z,6.90
2019-06-26T17:17:51.273Z,7.85
2019-06-26T17:20:20.993Z,9.10
2019-06-26T17:23:04.413Z,10.05
2019-06-26T17:25:21.762Z,6.67
2019-06-26T17:27:51.437Z,8.38
2019-06-26T17:30:21.016Z,12.53
2019-06-26T17:32:50.724Z,7.97
2019-06-26T17:35:20.473Z,5.47
2019-06-26T17:37:50.077Z,8.53
2019-06-26T17:40:20.057Z,5.60
2019-06-26T17:42:49.629Z,10.60
2019-06-26T17:45:19.208Z,8.78
2019-06-26T17:47:48.808Z,5.80
2019-06-26T17:50:18.589Z,8.05
2019-06-26T17:52:48.689Z,8.38
2019-06-26T17:55:18.272Z,7.30
2019-06-26T17:57:47.874Z,9.70
2019-06-26T18:00:20.777Z,7.53
2019-06-26T18:02:50.375Z,7.65
2019-06-26T18:05:19.957Z,11.12
2019-06-26T18:07:49.565Z,11.43
2019-06-26T18:10:19.145Z,11.05
2019-06-26T18:12:49.085Z,11.88
2019-06-26T18:15:18.673Z,14.87
2019-06-26T18:17:48.281Z,17.27
2019-06-26T18:20:17.865Z,12.82
2019-06-26T18:22:47.465Z,12.65
2019-06-26T18:25:17.152Z,12.28
2019-06-26T18:27:46.768Z,15.10
2019-06-26T18:30:16.771Z,12.50
2019-06-26T18:32:46.681Z,14.43
2019-06-26T18:35:16.271Z,8.35
2019-06-26T18:37:45.928Z,13.30
2019-06-26T18:40:15.710Z,13.83
2019-06-26T18:42:46.313Z,22.50
2019-06-26T18:45:17.000Z,15.68
2019-06-26T18:47:46.694Z,13.68
2019-06-26T18:50:16.548Z,15.28
2019-06-26T18:52:46.148Z,18.50
2019-06-26T18:55:15.720Z,12.05
2019-06-26T18:57:45.332Z,13.28
2019-06-26T19:00:16.620Z,11.90
2019-06-26T19:02:46.296Z,12.47
2019-06-26T19:05:15.991Z,25.27
2019-06-26T19:07:45.869Z,15.88
2019-06-26T19:10:16.064Z,15.48
2019-06-26T19:12:45.667Z,19.57
2019-06-26T19:15:15.349Z,13.32
2019-06-26T19:17:44.898Z,17.80
2019-06-26T19:20:14.764Z,16.32
2019-06-26T19:22:47.356Z,13.08
2019-06-26T19:25:16.133Z,13.20
2019-06-26T19:27:45.738Z,10.95
2019-06-26T19:30:15.413Z,10.88
2019-06-26T19:32:45.025Z,12.07
2019-06-26T19:35:21.609Z,14.90
2019-06-26T19:37:45.842Z,7.47
2019-06-26T19:40:15.516Z,10.45
2019-06-26T19:42:45.121Z,6.92
2019-06-26T19:45:16.596Z,10.35
2019-06-26T19:47:46.179Z,8.58
2019-06-26T19:50:15.958Z,9.28
2019-06-26T19:52:45.565Z,13.90
2019-06-26T19:55:15.155Z,10.60
2019-06-26T19:57:44.755Z,12.63
2019-06-26T20:00:14.554Z,7.22
2019-06-26T20:02:44.157Z,10.88
2019-06-26T20:05:14.065Z,9.53
2019-06-26T20:07:43.572Z,10.63
2019-06-26T20:10:13.456Z,9.43
2019-06-26T20:12:43.128Z,12.90
2019-06-26T20:15:13.101Z,10.85
2019-06-26T20:17:43.135Z,11.95
2019-06-26T20:20:13.047Z,8.53
2019-06-26T20:22:42.735Z,9.68
2019-06-26T20:25:12.498Z,17.45
2019-06-26T20:27:43.748Z,16.02
2019-06-26T20:30:14.239Z,11.05
2019-06-26T20:32:43.917Z,16.25
2019-06-26T20:35:13.498Z,13.53
2019-06-26T20:37:43.181Z,11.83
2019-06-26T20:40:12.870Z,16.32
2019-06-26T20:42:42.473Z,12.20
2019-06-26T20:45:13.957Z,9.43
2019-06-26T20:47:43.561Z,10.18
2019-06-26T20:50:13.345Z,13.65
2019-06-26T20:52:42.961Z,14.50
2019-06-26T20:55:12.544Z,8.15
2019-06-26T20:57:42.144Z,14.65
2019-06-26T21:00:12.634Z,12.20
2019-06-26T21:02:42.601Z,15.58
2019-06-26T21:05:12.192Z,12.65
2019-06-26T21:07:41.777Z,13.83
2019-06-26T21:10:11.557Z,16.02
2019-06-26T21:12:41.169Z,9.50
2019-06-26T21:15:10.766Z,16.17
2019-06-26T21:17:40.413Z,12.82
2019-06-26T21:20:10.417Z,10.98
2019-06-26T21:22:40.014Z,10.18
2019-06-26T21:25:18.289Z,11.73
2019-06-26T21:27:40.814Z,10.93
2019-06-26T21:30:10.789Z,16.55
2019-06-26T21:32:40.377Z,8.38
2019-06-26T21:35:10.085Z,12.88
2019-06-26T21:37:39.668Z,16.67
2019-06-26T21:40:10.343Z,8.65
2019-06-26T21:42:39.945Z,12.43
2019-06-26T21:45:11.005Z,11.20
2019-06-26T21:47:40.589Z,13.55
2019-06-26T21:50:10.218Z,15.55
2019-06-26T21:52:39.785Z,14.63
2019-06-26T21:55:09.393Z,16.45
2019-06-26T21:57:57.319Z,14.50
2019-06-26T22:00:44.845Z,16.82
2019-06-26T22:03:32.383Z,15.98
2019-06-26T22:06:12.863Z,18.77
2019-06-26T22:09:00.585Z,18.05
2019-06-26T22:11:31.984Z,14.47
2019-06-26T22:14:01.636Z,16.82
2019-06-26T22:16:31.413Z,21.90
2019-06-26T22:19:01.073Z,16.27
2019-06-26T22:21:30.744Z,16.67
2019-06-26T22:24:00.328Z,15.93
2019-06-26T22:26:31.013Z,14.25
2019-06-26T22:29:00.592Z,13.20
2019-06-26T22:31:30.206Z,14.65
2019-06-26T22:33:59.776Z,15.50
2019-06-26T22:36:29.376Z,18.67
2019-06-26T22:38:58.960Z,18.32
2019-06-26T22:41:28.582Z,19.10
2019-06-26T22:43:58.149Z,17.30
2019-06-26T22:46:27.768Z,17.92
2019-06-26T22:48:57.353Z,18.48
2019-06-26T22:51:27.024Z,15.03
2019-06-26T22:53:56.617Z,14.35
2019-06-26T22:56:26.213Z,18.67
2019-06-26T22:58:55.801Z,16.70
2019-06-26T23:01:25.493Z,14.60
2019-06-26T23:03:55.064Z,17.73
2019-06-26T23:06:24.673Z,15.03
2019-06-26T23:08:55.415Z,14.45
2019-06-26T23:11:25.034Z,14.65
2019-06-26T23:13:54.612Z,13.32
2019-06-26T23:16:24.231Z,13.20
2019-06-26T23:18:53.817Z,15.00
2019-06-26T23:21:23.425Z,12.20
2019-06-26T23:23:53.001Z,14.65
2019-06-26T23:26:24.258Z,15.72
2019-06-26T23:28:53.814Z,14.35
2019-06-26T23:31:23.428Z,18.82
2019-06-26T23:33:53.029Z,11.33
2019-06-26T23:36:22.483Z,10.15
2019-06-26T23:38:51.996Z,20.02
2019-06-26T23:41:22.672Z,14.23
2019-06-26T23:43:52.273Z,12.40
2019-06-26T23:46:21.941Z,14.63
2019-06-26T23:48:51.456Z,15.23
2019-06-26T23:51:20.992Z,13.28
2019-06-26T23:53:50.508Z,16.30
2019-06-26T23:56:20.185Z,18.80
2019-06-26T23:58:49.764Z,17.27
